Terminal Aerodrome Forecast
Issued by NWS

Home | Current Version | Previous Version | Text Only | Print | Product List | Glossary On
Versions: 1 2 3 4 5 6 7 8 9 10 11 12 13 14 15 16 17 18 19
000
FTAK31 PAJN 040500
TAFASI
TAF
PASI 040524Z 0406/0506 15006KT P6SM VCSH FEW007 BKN040 OVC060
     FM041300 VRB04KT P6SM VCSH BKN030 OVC050
     FM041500 11005KT P6SM -RA BKN030 OVC050
     FM041800 12005KT 6SM -RA BR BKN025 OVC050=

USA.gov is the U.S. government's official web portal to all federal, state and local government web resources and services.